sensor_id;sensor_type;location;lat;lon;timestamp;P1;durP1;ratioP1;P2;durP2;ratioP2
9007;SDS011;62813;51.424;6.762;2022-10-23T00:03:55;11.80;;;3.10;;
9007;SDS011;62813;51.424;6.762;2022-10-23T00:06:24;7.17;;;2.70;;
9007;SDS011;62813;51.424;6.762;2022-10-23T00:08:52;6.67;;;2.70;;
9007;SDS011;62813;51.424;6.762;2022-10-23T00:11:20;7.70;;;2.70;;
9007;SDS011;62813;51.424;6.762;2022-10-23T00:13:49;9.60;;;2.90;;
9007;SDS011;62813;51.424;6.762;2022-10-23T00:16:16;6.50;;;2.40;;
9007;SDS011;62813;51.424;6.762;2022-10-23T00:18:43;8.60;;;2.53;;
9007;SDS011;62813;51.424;6.762;2022-10-23T00:21:11;8.27;;;2.47;;
9007;SDS011;62813;51.424;6.762;2022-10-23T00:23:40;8.17;;;2.73;;
9007;SDS011;62813;51.424;6.762;2022-10-23T00:26:07;7.37;;;2.43;;
9007;SDS011;62813;51.424;6.762;2022-10-23T00:28:36;7.57;;;2.37;;
9007;SDS011;62813;51.424;6.762;2022-10-23T00:31:04;7.20;;;2.73;;
9007;SDS011;62813;51.424;6.762;2022-10-23T00:33:31;4.90;;;2.53;;
9007;SDS011;62813;51.424;6.762;2022-10-23T00:35:58;7.67;;;2.70;;
9007;SDS011;62813;51.424;6.762;2022-10-23T00:38:25;8.70;;;3.10;;
9007;SDS011;62813;51.424;6.762;2022-10-23T00:40:51;4.83;;;2.27;;
9007;SDS011;62813;51.424;6.762;2022-10-23T00:43:20;7.27;;;2.63;;
9007;SDS011;62813;51.424;6.762;2022-10-23T00:45:50;6.83;;;2.70;;
9007;SDS011;62813;51.424;6.762;2022-10-23T00:48:16;5.80;;;2.40;;
9007;SDS011;62813;51.424;6.762;2022-10-23T00:50:45;7.73;;;2.60;;
9007;SDS011;62813;51.424;6.762;2022-10-23T00:53:12;10.13;;;2.40;;
9007;SDS011;62813;51.424;6.762;2022-10-23T00:55:42;7.83;;;2.37;;
9007;SDS011;62813;51.424;6.762;2022-10-23T00:58:13;10.70;;;3.10;;
9007;SDS011;62813;51.424;6.762;2022-10-23T01:03:09;11.47;;;2.33;;
9007;SDS011;62813;51.424;6.762;2022-10-23T01:05:41;6.70;;;2.80;;
9007;SDS011;62813;51.424;6.762;2022-10-23T01:08:20;9.33;;;2.93;;
9007;SDS011;62813;51.424;6.762;2022-10-23T01:10:56;8.00;;;2.50;;
9007;SDS011;62813;51.424;6.762;2022-10-23T01:13:32;9.33;;;2.53;;
9007;SDS011;62813;51.424;6.762;2022-10-23T01:19:20;6.60;;;2.57;;
9007;SDS011;62813;51.424;6.762;2022-10-23T01:28:08;7.03;;;2.63;;
9007;SDS011;62813;51.424;6.762;2022-10-23T01:30:38;6.70;;;2.73;;
9007;SDS011;62813;51.424;6.762;2022-10-23T01:33:12;5.47;;;2.30;;
9007;SDS011;62813;51.424;6.762;2022-10-23T01:35:56;8.10;;;2.73;;
9007;SDS011;62813;51.424;6.762;2022-10-23T01:38:30;5.23;;;2.30;;
9007;SDS011;62813;51.424;6.762;2022-10-23T01:41:02;9.93;;;2.57;;
9007;SDS011;62813;51.424;6.762;2022-10-23T01:43:52;6.50;;;2.63;;
9007;SDS011;62813;51.424;6.762;2022-10-23T01:46:39;5.13;;;2.20;;
9007;SDS011;62813;51.424;6.762;2022-10-23T01:49:09;7.47;;;2.60;;
9007;SDS011;62813;51.424;6.762;2022-10-23T01:51:38;7.00;;;2.47;;
9007;SDS011;62813;51.424;6.762;2022-10-23T01:54:08;8.73;;;2.43;;
9007;SDS011;62813;51.424;6.762;2022-10-23T01:56:38;5.97;;;2.63;;
9007;SDS011;62813;51.424;6.762;2022-10-23T01:59:09;8.73;;;3.13;;
9007;SDS011;62813;51.424;6.762;2022-10-23T02:01:40;7.57;;;2.53;;
9007;SDS011;62813;51.424;6.762;2022-10-23T02:04:11;7.63;;;2.67;;
9007;SDS011;62813;51.424;6.762;2022-10-23T02:06:43;10.83;;;2.83;;
9007;SDS011;62813;51.424;6.762;2022-10-23T02:09:10;5.77;;;2.33;;
9007;SDS011;62813;51.424;6.762;2022-10-23T02:11:39;6.20;;;2.80;;
9007;SDS011;62813;51.424;6.762;2022-10-23T02:14:28;7.57;;;2.90;;
9007;SDS011;62813;51.424;6.762;2022-10-23T02:17:01;4.80;;;2.23;;
9007;SDS011;62813;51.424;6.762;2022-10-23T02:22:26;7.03;;;2.47;;
9007;SDS011;62813;51.424;6.762;2022-10-23T02:25:10;6.43;;;2.90;;
9007;SDS011;62813;51.424;6.762;2022-10-23T02:27:49;7.27;;;2.40;;
9007;SDS011;62813;51.424;6.762;2022-10-23T02:30:21;7.90;;;2.50;;
9007;SDS011;62813;51.424;6.762;2022-10-23T02:32:49;9.70;;;2.53;;
9007;SDS011;62813;51.424;6.762;2022-10-23T02:35:18;9.60;;;2.77;;
9007;SDS011;62813;51.424;6.762;2022-10-23T02:37:53;5.63;;;2.50;;
9007;SDS011;62813;51.424;6.762;2022-10-23T02:40:21;6.80;;;2.27;;
9007;SDS011;62813;51.424;6.762;2022-10-23T02:43:02;6.50;;;2.00;;
9007;SDS011;62813;51.424;6.762;2022-10-23T02:45:43;8.13;;;2.43;;
9007;SDS011;62813;51.424;6.762;2022-10-23T02:48:19;7.90;;;2.30;;
9007;SDS011;62813;51.424;6.762;2022-10-23T02:54:01;3.87;;;2.23;;
9007;SDS011;62813;51.424;6.762;2022-10-23T02:59:13;6.20;;;2.50;;
9007;SDS011;62813;51.424;6.762;2022-10-23T03:01:50;3.87;;;2.00;;
9007;SDS011;62813;51.424;6.762;2022-10-23T03:04:23;8.40;;;2.03;;
9007;SDS011;62813;51.424;6.762;2022-10-23T03:06:51;4.03;;;2.30;;
9007;SDS011;62813;51.424;6.762;2022-10-23T03:09:18;9.17;;;2.20;;
9007;SDS011;62813;51.424;6.762;2022-10-23T03:11:44;9.13;;;2.33;;
9007;SDS011;62813;51.424;6.762;2022-10-23T03:14:11;4.70;;;1.90;;
9007;SDS011;62813;51.424;6.762;2022-10-23T03:16:39;4.93;;;2.30;;
9007;SDS011;62813;51.424;6.762;2022-10-23T03:19:05;6.97;;;2.30;;
9007;SDS011;62813;51.424;6.762;2022-10-23T03:21:32;13.20;;;2.53;;
9007;SDS011;62813;51.424;6.762;2022-10-23T03:23:59;7.03;;;2.13;;
9007;SDS011;62813;51.424;6.762;2022-10-23T03:26:28;3.87;;;2.10;;
9007;SDS011;62813;51.424;6.762;2022-10-23T03:28:55;6.33;;;2.50;;
9007;SDS011;62813;51.424;6.762;2022-10-23T03:31:22;6.17;;;2.40;;
9007;SDS011;62813;51.424;6.762;2022-10-23T03:33:48;7.83;;;2.57;;
9007;SDS011;62813;51.424;6.762;2022-10-23T03:36:15;4.87;;;2.20;;
9007;SDS011;62813;51.424;6.762;2022-10-23T03:38:41;5.77;;;2.30;;
9007;SDS011;62813;51.424;6.762;2022-10-23T03:41:08;4.37;;;2.20;;
9007;SDS011;62813;51.424;6.762;2022-10-23T03:43:34;5.80;;;2.30;;
9007;SDS011;62813;51.424;6.762;2022-10-23T03:46:01;8.07;;;2.63;;
9007;SDS011;62813;51.424;6.762;2022-10-23T03:48:28;6.23;;;2.13;;
9007;SDS011;62813;51.424;6.762;2022-10-23T03:50:54;6.60;;;2.20;;
9007;SDS011;62813;51.424;6.762;2022-10-23T03:53:21;6.13;;;2.37;;
9007;SDS011;62813;51.424;6.762;2022-10-23T03:55:47;4.37;;;2.40;;
9007;SDS011;62813;51.424;6.762;2022-10-23T03:58:14;6.93;;;2.40;;
9007;SDS011;62813;51.424;6.762;2022-10-23T04:00:41;6.50;;;2.40;;
9007;SDS011;62813;51.424;6.762;2022-10-23T04:03:27;7.07;;;1.90;;
9007;SDS011;62813;51.424;6.762;2022-10-23T04:05:54;11.53;;;2.73;;
9007;SDS011;62813;51.424;6.762;2022-10-23T04:08:21;8.17;;;2.90;;
9007;SDS011;62813;51.424;6.762;2022-10-23T04:10:48;5.37;;;2.50;;
9007;SDS011;62813;51.424;6.762;2022-10-23T04:13:14;7.40;;;2.83;;
9007;SDS011;62813;51.424;6.762;2022-10-23T04:15:46;6.23;;;2.67;;
9007;SDS011;62813;51.424;6.762;2022-10-23T04:18:14;11.40;;;3.00;;
9007;SDS011;62813;51.424;6.762;2022-10-23T04:20:40;8.00;;;2.53;;
9007;SDS011;62813;51.424;6.762;2022-10-23T04:23:07;5.07;;;2.50;;
9007;SDS011;62813;51.424;6.762;2022-10-23T04:25:34;8.40;;;2.40;;
9007;SDS011;62813;51.424;6.762;2022-10-23T04:28:00;6.43;;;2.40;;
9007;SDS011;62813;51.424;6.762;2022-10-23T04:30:27;6.40;;;2.57;;
9007;SDS011;62813;51.424;6.762;2022-10-23T04:32:53;5.80;;;2.00;;
9007;SDS011;62813;51.424;6.762;2022-10-23T04:35:20;6.60;;;2.60;;
9007;SDS011;62813;51.424;6.762;2022-10-23T04:37:46;7.67;;;2.63;;
9007;SDS011;62813;51.424;6.762;2022-10-23T04:40:13;6.93;;;2.00;;
9007;SDS011;62813;51.424;6.762;2022-10-23T04:42:40;3.83;;;2.07;;
9007;SDS011;62813;51.424;6.762;2022-10-23T04:45:07;6.17;;;2.23;;
9007;SDS011;62813;51.424;6.762;2022-10-23T04:47:34;11.73;;;2.40;;
9007;SDS011;62813;51.424;6.762;2022-10-23T04:50:01;9.47;;;2.53;;
9007;SDS011;62813;51.424;6.762;2022-10-23T04:52:28;5.20;;;2.50;;
9007;SDS011;62813;51.424;6.762;2022-10-23T04:54:54;4.57;;;1.80;;
9007;SDS011;62813;51.424;6.762;2022-10-23T04:57:21;4.53;;;2.07;;
9007;SDS011;62813;51.424;6.762;2022-10-23T04:59:48;5.77;;;2.10;;
9007;SDS011;62813;51.424;6.762;2022-10-23T05:02:14;8.17;;;2.73;;
9007;SDS011;62813;51.424;6.762;2022-10-23T05:04:41;5.23;;;2.50;;
9007;SDS011;62813;51.424;6.762;2022-10-23T05:07:08;7.73;;;2.20;;
9007;SDS011;62813;51.424;6.762;2022-10-23T05:09:34;7.97;;;2.23;;
9007;SDS011;62813;51.424;6.762;2022-10-23T05:12:01;5.13;;;2.40;;
9007;SDS011;62813;51.424;6.762;2022-10-23T05:14:28;6.90;;;2.10;;
9007;SDS011;62813;51.424;6.762;2022-10-23T05:16:59;6.23;;;1.83;;
9007;SDS011;62813;51.424;6.762;2022-10-23T05:19:36;5.40;;;2.13;;
9007;SDS011;62813;51.424;6.762;2022-10-23T05:22:07;6.13;;;2.03;;
9007;SDS011;62813;51.424;6.762;2022-10-23T05:24:34;6.23;;;2.30;;
9007;SDS011;62813;51.424;6.762;2022-10-23T05:27:01;5.63;;;2.30;;
9007;SDS011;62813;51.424;6.762;2022-10-23T05:29:28;6.23;;;2.17;;
9007;SDS011;62813;51.424;6.762;2022-10-23T05:31:56;6.00;;;2.00;;
9007;SDS011;62813;51.424;6.762;2022-10-23T05:34:26;8.00;;;2.30;;
9007;SDS011;62813;51.424;6.762;2022-10-23T05:36:53;4.67;;;1.97;;
9007;SDS011;62813;51.424;6.762;2022-10-23T05:39:20;7.93;;;2.43;;
9007;SDS011;62813;51.424;6.762;2022-10-23T05:41:47;9.47;;;1.80;;
9007;SDS011;62813;51.424;6.762;2022-10-23T05:44:14;7.53;;;2.47;;
9007;SDS011;62813;51.424;6.762;2022-10-23T05:46:41;5.03;;;2.00;;
9007;SDS011;62813;51.424;6.762;2022-10-23T05:49:08;3.27;;;1.70;;
9007;SDS011;62813;51.424;6.762;2022-10-23T05:51:35;7.50;;;1.97;;
9007;SDS011;62813;51.424;6.762;2022-10-23T05:54:04;5.37;;;2.33;;
9007;SDS011;62813;51.424;6.762;2022-10-23T05:56:38;5.57;;;1.93;;
9007;SDS011;62813;51.424;6.762;2022-10-23T05:59:08;3.40;;;2.00;;
9007;SDS011;62813;51.424;6.762;2022-10-23T06:01:35;6.30;;;2.33;;
9007;SDS011;62813;51.424;6.762;2022-10-23T06:04:03;7.80;;;2.00;;
9007;SDS011;62813;51.424;6.762;2022-10-23T06:06:30;8.23;;;2.43;;
9007;SDS011;62813;51.424;6.762;2022-10-23T06:08:57;4.13;;;2.00;;
9007;SDS011;62813;51.424;6.762;2022-10-23T06:11:23;4.73;;;1.90;;
9007;SDS011;62813;51.424;6.762;2022-10-23T06:13:50;8.90;;;1.87;;
9007;SDS011;62813;51.424;6.762;2022-10-23T06:16:18;4.37;;;2.03;;
9007;SDS011;62813;51.424;6.762;2022-10-23T06:18:46;4.13;;;1.97;;
9007;SDS011;62813;51.424;6.762;2022-10-23T06:21:13;5.63;;;2.13;;
9007;SDS011;62813;51.424;6.762;2022-10-23T06:23:41;8.20;;;1.90;;
9007;SDS011;62813;51.424;6.762;2022-10-23T06:26:09;7.93;;;2.30;;
9007;SDS011;62813;51.424;6.762;2022-10-23T06:28:37;5.30;;;2.37;;
9007;SDS011;62813;51.424;6.762;2022-10-23T06:31:05;4.60;;;2.30;;
9007;SDS011;62813;51.424;6.762;2022-10-23T06:33:33;4.77;;;1.97;;
9007;SDS011;62813;51.424;6.762;2022-10-23T06:35:59;9.63;;;2.03;;
9007;SDS011;62813;51.424;6.762;2022-10-23T06:38:26;3.83;;;1.90;;
9007;SDS011;62813;51.424;6.762;2022-10-23T06:40:53;4.67;;;2.00;;
9007;SDS011;62813;51.424;6.762;2022-10-23T06:43:21;3.97;;;1.93;;
9007;SDS011;62813;51.424;6.762;2022-10-23T06:45:47;4.70;;;1.90;;
9007;SDS011;62813;51.424;6.762;2022-10-23T06:48:14;8.33;;;2.30;;
9007;SDS011;62813;51.424;6.762;2022-10-23T06:50:41;4.47;;;2.10;;
9007;SDS011;62813;51.424;6.762;2022-10-23T06:53:08;6.07;;;1.77;;
9007;SDS011;62813;51.424;6.762;2022-10-23T06:55:34;7.40;;;2.17;;
9007;SDS011;62813;51.424;6.762;2022-10-23T06:58:21;5.37;;;2.27;;
9007;SDS011;62813;51.424;6.762;2022-10-23T07:00:48;5.17;;;2.30;;
9007;SDS011;62813;51.424;6.762;2022-10-23T07:03:15;2.70;;;1.80;;
9007;SDS011;62813;51.424;6.762;2022-10-23T07:05:41;5.03;;;2.20;;
9007;SDS011;62813;51.424;6.762;2022-10-23T07:08:10;5.47;;;1.90;;
9007;SDS011;62813;51.424;6.762;2022-10-23T07:10:37;5.40;;;1.80;;
9007;SDS011;62813;51.424;6.762;2022-10-23T07:13:03;7.13;;;2.20;;
9007;SDS011;62813;51.424;6.762;2022-10-23T07:15:30;6.40;;;2.10;;
9007;SDS011;62813;51.424;6.762;2022-10-23T07:17:57;4.27;;;1.80;;
9007;SDS011;62813;51.424;6.762;2022-10-23T07:20:23;3.93;;;2.03;;
9007;SDS011;62813;51.424;6.762;2022-10-23T07:22:51;9.17;;;1.90;;
9007;SDS011;62813;51.424;6.762;2022-10-23T07:25:20;5.60;;;1.80;;
9007;SDS011;62813;51.424;6.762;2022-10-23T07:27:47;5.93;;;1.90;;
9007;SDS011;62813;51.424;6.762;2022-10-23T07:30:15;5.30;;;2.07;;
9007;SDS011;62813;51.424;6.762;2022-10-23T07:32:42;5.70;;;2.00;;
9007;SDS011;62813;51.424;6.762;2022-10-23T07:35:10;7.70;;;2.20;;
9007;SDS011;62813;51.424;6.762;2022-10-23T07:37:58;3.03;;;2.00;;
9007;SDS011;62813;51.424;6.762;2022-10-23T07:40:25;7.03;;;2.03;;
9007;SDS011;62813;51.424;6.762;2022-10-23T07:42:51;3.53;;;1.53;;
9007;SDS011;62813;51.424;6.762;2022-10-23T07:45:18;5.87;;;1.90;;
9007;SDS011;62813;51.424;6.762;2022-10-23T07:47:48;3.33;;;1.73;;
9007;SDS011;62813;51.424;6.762;2022-10-23T07:50:16;3.63;;;1.57;;
9007;SDS011;62813;51.424;6.762;2022-10-23T07:52:43;6.83;;;1.70;;
9007;SDS011;62813;51.424;6.762;2022-10-23T07:55:10;5.80;;;2.00;;
9007;SDS011;62813;51.424;6.762;2022-10-23T07:57:37;4.43;;;1.77;;
9007;SDS011;62813;51.424;6.762;2022-10-23T08:00:05;5.17;;;1.60;;
9007;SDS011;62813;51.424;6.762;2022-10-23T08:02:32;6.93;;;1.90;;
9007;SDS011;62813;51.424;6.762;2022-10-23T08:04:59;4.57;;;1.67;;
9007;SDS011;62813;51.424;6.762;2022-10-23T08:07:25;4.67;;;1.70;;
9007;SDS011;62813;51.424;6.762;2022-10-23T08:09:52;3.73;;;1.50;;
9007;SDS011;62813;51.424;6.762;2022-10-23T08:12:18;6.47;;;1.90;;
9007;SDS011;62813;51.424;6.762;2022-10-23T08:14:45;5.13;;;1.60;;
9007;SDS011;62813;51.424;6.762;2022-10-23T08:17:11;7.17;;;2.03;;
9007;SDS011;62813;51.424;6.762;2022-10-23T08:19:38;5.83;;;1.60;;
9007;SDS011;62813;51.424;6.762;2022-10-23T08:22:05;7.90;;;1.97;;
9007;SDS011;62813;51.424;6.762;2022-10-23T08:24:31;4.70;;;1.90;;
9007;SDS011;62813;51.424;6.762;2022-10-23T08:26:58;4.60;;;1.77;;
9007;SDS011;62813;51.424;6.762;2022-10-23T08:29:25;4.40;;;1.57;;
9007;SDS011;62813;51.424;6.762;2022-10-23T08:31:52;6.20;;;1.87;;
9007;SDS011;62813;51.424;6.762;2022-10-23T08:34:21;2.93;;;1.80;;
9007;SDS011;62813;51.424;6.762;2022-10-23T08:36:47;2.30;;;1.60;;
9007;SDS011;62813;51.424;6.762;2022-10-23T08:39:14;8.57;;;2.10;;
9007;SDS011;62813;51.424;6.762;2022-10-23T08:41:42;4.93;;;1.53;;
9007;SDS011;62813;51.424;6.762;2022-10-23T08:47:04;3.60;;;1.90;;
9007;SDS011;62813;51.424;6.762;2022-10-23T08:52:25;7.30;;;2.10;;
9007;SDS011;62813;51.424;6.762;2022-10-23T09:00:57;4.67;;;1.50;;
9007;SDS011;62813;51.424;6.762;2022-10-23T09:03:24;7.03;;;1.80;;
9007;SDS011;62813;51.424;6.762;2022-10-23T09:08:35;5.63;;;1.50;;
9007;SDS011;62813;51.424;6.762;2022-10-23T09:11:16;4.73;;;2.03;;
9007;SDS011;62813;51.424;6.762;2022-10-23T09:14:51;8.07;;;1.90;;
9007;SDS011;62813;51.424;6.762;2022-10-23T09:19:26;3.47;;;1.40;;
9007;SDS011;62813;51.424;6.762;2022-10-23T09:21:54;5.47;;;1.77;;
9007;SDS011;62813;51.424;6.762;2022-10-23T09:24:23;5.83;;;1.47;;
9007;SDS011;62813;51.424;6.762;2022-10-23T09:26:51;6.20;;;1.93;;
9007;SDS011;62813;51.424;6.762;2022-10-23T09:29:23;3.47;;;1.67;;
9007;SDS011;62813;51.424;6.762;2022-10-23T09:31:55;3.87;;;1.27;;
9007;SDS011;62813;51.424;6.762;2022-10-23T09:34:24;7.77;;;1.30;;
9007;SDS011;62813;51.424;6.762;2022-10-23T09:36:53;3.83;;;1.70;;
9007;SDS011;62813;51.424;6.762;2022-10-23T09:39:29;3.93;;;1.63;;
9007;SDS011;62813;51.424;6.762;2022-10-23T09:41:58;4.43;;;1.40;;
9007;SDS011;62813;51.424;6.762;2022-10-23T09:44:28;6.27;;;1.60;;
9007;SDS011;62813;51.424;6.762;2022-10-23T09:47:07;5.93;;;1.50;;
9007;SDS011;62813;51.424;6.762;2022-10-23T09:49:39;2.33;;;1.30;;
9007;SDS011;62813;51.424;6.762;2022-10-23T09:54:52;4.07;;;1.37;;
9007;SDS011;62813;51.424;6.762;2022-10-23T09:57:36;4.13;;;1.60;;
9007;SDS011;62813;51.424;6.762;2022-10-23T10:02:42;9.87;;;1.50;;
9007;SDS011;62813;51.424;6.762;2022-10-23T10:05:27;3.07;;;1.50;;
9007;SDS011;62813;51.424;6.762;2022-10-23T10:08:11;4.80;;;1.50;;
9007;SDS011;62813;51.424;6.762;2022-10-23T10:11:00;3.80;;;1.43;;
9007;SDS011;62813;51.424;6.762;2022-10-23T10:16:20;5.07;;;2.00;;
9007;SDS011;62813;51.424;6.762;2022-10-23T10:19:13;2.07;;;1.40;;
9007;SDS011;62813;51.424;6.762;2022-10-23T10:24:33;9.27;;;1.80;;
9007;SDS011;62813;51.424;6.762;2022-10-23T10:32:45;3.97;;;1.73;;
9007;SDS011;62813;51.424;6.762;2022-10-23T10:41:05;4.27;;;1.40;;
9007;SDS011;62813;51.424;6.762;2022-10-23T10:43:46;4.63;;;1.50;;
9007;SDS011;62813;51.424;6.762;2022-10-23T10:46:33;2.47;;;1.60;;
9007;SDS011;62813;51.424;6.762;2022-10-23T10:49:26;5.03;;;1.77;;
9007;SDS011;62813;51.424;6.762;2022-10-23T10:54:47;3.40;;;1.60;;
9007;SDS011;62813;51.424;6.762;2022-10-23T10:57:19;4.77;;;1.80;;
9007;SDS011;62813;51.424;6.762;2022-10-23T10:59:54;3.60;;;1.70;;
9007;SDS011;62813;51.424;6.762;2022-10-23T11:02:25;4.13;;;1.50;;
9007;SDS011;62813;51.424;6.762;2022-10-23T11:08:03;4.00;;;1.70;;
9007;SDS011;62813;51.424;6.762;2022-10-23T11:10:37;4.77;;;1.60;;
9007;SDS011;62813;51.424;6.762;2022-10-23T11:16:01;8.13;;;1.80;;
9007;SDS011;62813;51.424;6.762;2022-10-23T11:18:34;5.67;;;1.40;;
9007;SDS011;62813;51.424;6.762;2022-10-23T11:23:56;4.37;;;1.73;;
9007;SDS011;62813;51.424;6.762;2022-10-23T11:26:36;8.10;;;1.40;;
9007;SDS011;62813;51.424;6.762;2022-10-23T11:29:16;5.50;;;2.10;;
9007;SDS011;62813;51.424;6.762;2022-10-23T11:31:52;6.23;;;1.70;;
9007;SDS011;62813;51.424;6.762;2022-10-23T11:37:20;2.70;;;1.30;;
9007;SDS011;62813;51.424;6.762;2022-10-23T11:42:28;4.67;;;1.50;;
9007;SDS011;62813;51.424;6.762;2022-10-23T11:44:57;4.00;;;1.37;;
9007;SDS011;62813;51.424;6.762;2022-10-23T11:55:17;4.63;;;1.53;;
9007;SDS011;62813;51.424;6.762;2022-10-23T12:00:53;6.70;;;1.50;;
9007;SDS011;62813;51.424;6.762;2022-10-23T12:03:22;5.20;;;1.57;;
9007;SDS011;62813;51.424;6.762;2022-10-23T12:06:16;4.83;;;1.43;;
9007;SDS011;62813;51.424;6.762;2022-10-23T12:08:55;2.57;;;1.40;;
9007;SDS011;62813;51.424;6.762;2022-10-23T12:11:28;6.83;;;1.50;;
9007;SDS011;62813;51.424;6.762;2022-10-23T12:17:02;3.57;;;1.80;;
9007;SDS011;62813;51.424;6.762;2022-10-23T12:19:46;7.27;;;1.47;;
9007;SDS011;62813;51.424;6.762;2022-10-23T12:22:20;4.23;;;1.60;;
9007;SDS011;62813;51.424;6.762;2022-10-23T12:32:52;4.57;;;1.30;;
9007;SDS011;62813;51.424;6.762;2022-10-23T12:35:42;4.97;;;1.97;;
9007;SDS011;62813;51.424;6.762;2022-10-23T12:38:19;2.83;;;1.40;;
9007;SDS011;62813;51.424;6.762;2022-10-23T12:40:50;3.23;;;1.70;;
9007;SDS011;62813;51.424;6.762;2022-10-23T12:43:31;4.67;;;1.70;;
9007;SDS011;62813;51.424;6.762;2022-10-23T12:46:48;4.10;;;1.93;;
9007;SDS011;62813;51.424;6.762;2022-10-23T12:49:12;3.60;;;1.53;;
9007;SDS011;62813;51.424;6.762;2022-10-23T12:51:41;4.13;;;1.47;;
9007;SDS011;62813;51.424;6.762;2022-10-23T12:54:14;4.83;;;1.60;;
9007;SDS011;62813;51.424;6.762;2022-10-23T12:56:42;9.07;;;2.50;;
9007;SDS011;62813;51.424;6.762;2022-10-23T12:59:14;12.13;;;2.67;;
9007;SDS011;62813;51.424;6.762;2022-10-23T13:01:43;4.07;;;2.00;;
9007;SDS011;62813;51.424;6.762;2022-10-23T13:06:52;8.40;;;2.50;;
9007;SDS011;62813;51.424;6.762;2022-10-23T13:09:22;10.73;;;2.27;;
9007;SDS011;62813;51.424;6.762;2022-10-23T13:11:58;7.70;;;2.47;;
9007;SDS011;62813;51.424;6.762;2022-10-23T13:14:32;7.17;;;2.30;;
9007;SDS011;62813;51.424;6.762;2022-10-23T13:17:06;4.83;;;2.10;;
9007;SDS011;62813;51.424;6.762;2022-10-23T13:19:35;4.73;;;2.03;;
9007;SDS011;62813;51.424;6.762;2022-10-23T13:22:03;10.30;;;3.33;;
9007;SDS011;62813;51.424;6.762;2022-10-23T13:24:40;7.53;;;2.13;;
9007;SDS011;62813;51.424;6.762;2022-10-23T13:29:58;5.53;;;2.00;;
9007;SDS011;62813;51.424;6.762;2022-10-23T13:32:27;7.23;;;1.97;;
9007;SDS011;62813;51.424;6.762;2022-10-23T13:34:55;5.77;;;1.90;;
9007;SDS011;62813;51.424;6.762;2022-10-23T13:37:47;3.67;;;1.87;;
9007;SDS011;62813;51.424;6.762;2022-10-23T13:40:24;6.07;;;2.10;;
9007;SDS011;62813;51.424;6.762;2022-10-23T13:42:52;7.37;;;2.00;;
9007;SDS011;62813;51.424;6.762;2022-10-23T13:45:21;5.17;;;1.50;;
9007;SDS011;62813;51.424;6.762;2022-10-23T13:47:50;6.20;;;1.90;;
9007;SDS011;62813;51.424;6.762;2022-10-23T13:50:17;5.00;;;2.17;;
9007;SDS011;62813;51.424;6.762;2022-10-23T13:52:44;6.63;;;2.20;;
9007;SDS011;62813;51.424;6.762;2022-10-23T13:55:17;3.00;;;2.00;;
9007;SDS011;62813;51.424;6.762;2022-10-23T13:57:47;3.50;;;1.83;;
9007;SDS011;62813;51.424;6.762;2022-10-23T14:00:14;9.07;;;2.13;;
9007;SDS011;62813;51.424;6.762;2022-10-23T14:02:41;5.30;;;2.13;;
9007;SDS011;62813;51.424;6.762;2022-10-23T14:05:10;4.77;;;2.20;;
9007;SDS011;62813;51.424;6.762;2022-10-23T14:07:37;4.80;;;1.80;;
9007;SDS011;62813;51.424;6.762;2022-10-23T14:10:04;3.03;;;2.20;;
9007;SDS011;62813;51.424;6.762;2022-10-23T14:12:37;6.27;;;2.30;;
9007;SDS011;62813;51.424;6.762;2022-10-23T14:15:08;7.27;;;2.17;;
9007;SDS011;62813;51.424;6.762;2022-10-23T14:17:35;4.90;;;2.10;;
9007;SDS011;62813;51.424;6.762;2022-10-23T14:20:03;6.27;;;2.27;;
9007;SDS011;62813;51.424;6.762;2022-10-23T14:22:31;5.90;;;2.13;;
9007;SDS011;62813;51.424;6.762;2022-10-23T14:24:58;7.20;;;2.20;;
9007;SDS011;62813;51.424;6.762;2022-10-23T14:27:24;9.33;;;2.40;;
9007;SDS011;62813;51.424;6.762;2022-10-23T14:29:51;7.73;;;2.23;;
9007;SDS011;62813;51.424;6.762;2022-10-23T14:32:18;7.43;;;2.50;;
9007;SDS011;62813;51.424;6.762;2022-10-23T14:34:48;7.03;;;2.27;;
9007;SDS011;62813;51.424;6.762;2022-10-23T14:37:16;4.47;;;2.40;;
9007;SDS011;62813;51.424;6.762;2022-10-23T14:39:44;4.43;;;2.07;;
9007;SDS011;62813;51.424;6.762;2022-10-23T14:42:15;5.60;;;2.40;;
9007;SDS011;62813;51.424;6.762;2022-10-23T14:44:42;5.00;;;2.40;;
9007;SDS011;62813;51.424;6.762;2022-10-23T14:47:08;5.90;;;1.90;;
9007;SDS011;62813;51.424;6.762;2022-10-23T14:49:35;3.77;;;2.50;;
9007;SDS011;62813;51.424;6.762;2022-10-23T14:52:02;3.93;;;2.07;;
9007;SDS011;62813;51.424;6.762;2022-10-23T14:54:28;4.03;;;2.17;;
9007;SDS011;62813;51.424;6.762;2022-10-23T14:56:57;9.67;;;2.27;;
9007;SDS011;62813;51.424;6.762;2022-10-23T14:59:23;3.53;;;2.10;;
9007;SDS011;62813;51.424;6.762;2022-10-23T15:01:50;5.83;;;2.37;;
9007;SDS011;62813;51.424;6.762;2022-10-23T15:04:16;118.63;;;43.43;;
9007;SDS011;62813;51.424;6.762;2022-10-23T15:06:43;79.43;;;32.47;;
9007;SDS011;62813;51.424;6.762;2022-10-23T15:09:12;64.80;;;26.57;;
9007;SDS011;62813;51.424;6.762;2022-10-23T15:11:39;48.77;;;19.97;;
9007;SDS011;62813;51.424;6.762;2022-10-23T15:14:06;29.23;;;14.83;;
9007;SDS011;62813;51.424;6.762;2022-10-23T15:16:33;30.33;;;14.00;;
9007;SDS011;62813;51.424;6.762;2022-10-23T15:19:07;15.83;;;8.83;;
9007;SDS011;62813;51.424;6.762;2022-10-23T15:21:42;16.73;;;6.60;;
9007;SDS011;62813;51.424;6.762;2022-10-23T15:24:09;9.30;;;4.87;;
9007;SDS011;62813;51.424;6.762;2022-10-23T15:26:35;15.93;;;5.90;;
9007;SDS011;62813;51.424;6.762;2022-10-23T15:29:03;5.70;;;3.50;;
9007;SDS011;62813;51.424;6.762;2022-10-23T15:34:03;18.47;;;3.77;;
9007;SDS011;62813;51.424;6.762;2022-10-23T15:36:30;7.73;;;3.60;;
9007;SDS011;62813;51.424;6.762;2022-10-23T15:38:58;11.40;;;2.93;;
9007;SDS011;62813;51.424;6.762;2022-10-23T15:41:29;5.10;;;3.07;;
9007;SDS011;62813;51.424;6.762;2022-10-23T15:43:58;5.07;;;2.70;;
9007;SDS011;62813;51.424;6.762;2022-10-23T15:46:25;7.67;;;2.83;;
9007;SDS011;62813;51.424;6.762;2022-10-23T15:48:54;6.53;;;3.30;;
9007;SDS011;62813;51.424;6.762;2022-10-23T15:51:20;8.73;;;2.93;;
9007;SDS011;62813;51.424;6.762;2022-10-23T15:53:47;9.67;;;2.87;;
9007;SDS011;62813;51.424;6.762;2022-10-23T15:56:14;7.30;;;2.87;;
9007;SDS011;62813;51.424;6.762;2022-10-23T15:58:41;4.50;;;2.43;;
9007;SDS011;62813;51.424;6.762;2022-10-23T16:01:08;9.03;;;3.10;;
9007;SDS011;62813;51.424;6.762;2022-10-23T16:03:36;5.63;;;2.80;;
9007;SDS011;62813;51.424;6.762;2022-10-23T16:06:04;6.13;;;3.17;;
9007;SDS011;62813;51.424;6.762;2022-10-23T16:08:32;4.73;;;2.93;;
9007;SDS011;62813;51.424;6.762;2022-10-23T16:10:59;5.70;;;2.87;;
9007;SDS011;62813;51.424;6.762;2022-10-23T16:13:26;4.97;;;2.60;;
9007;SDS011;62813;51.424;6.762;2022-10-23T16:15:53;7.40;;;3.17;;
9007;SDS011;62813;51.424;6.762;2022-10-23T16:18:20;6.47;;;2.80;;
9007;SDS011;62813;51.424;6.762;2022-10-23T16:20:47;6.17;;;2.90;;
9007;SDS011;62813;51.424;6.762;2022-10-23T16:23:20;4.37;;;2.77;;
9007;SDS011;62813;51.424;6.762;2022-10-23T16:25:47;9.23;;;3.00;;
9007;SDS011;62813;51.424;6.762;2022-10-23T16:28:15;8.77;;;2.93;;
9007;SDS011;62813;51.424;6.762;2022-10-23T16:30:42;5.97;;;2.83;;
9007;SDS011;62813;51.424;6.762;2022-10-23T16:33:09;5.33;;;3.23;;
9007;SDS011;62813;51.424;6.762;2022-10-23T16:35:35;5.97;;;3.23;;
9007;SDS011;62813;51.424;6.762;2022-10-23T16:38:02;8.10;;;3.10;;
9007;SDS011;62813;51.424;6.762;2022-10-23T16:40:29;7.73;;;3.00;;
9007;SDS011;62813;51.424;6.762;2022-10-23T16:42:56;7.30;;;2.87;;
9007;SDS011;62813;51.424;6.762;2022-10-23T16:45:23;8.67;;;3.10;;
9007;SDS011;62813;51.424;6.762;2022-10-23T16:47:50;5.57;;;2.63;;
9007;SDS011;62813;51.424;6.762;2022-10-23T16:50:17;6.67;;;3.10;;
9007;SDS011;62813;51.424;6.762;2022-10-23T16:52:43;5.63;;;3.37;;
9007;SDS011;62813;51.424;6.762;2022-10-23T16:55:10;6.83;;;3.10;;
9007;SDS011;62813;51.424;6.762;2022-10-23T16:57:37;4.63;;;3.10;;
9007;SDS011;62813;51.424;6.762;2022-10-23T17:00:04;6.33;;;3.40;;
9007;SDS011;62813;51.424;6.762;2022-10-23T17:02:31;5.53;;;2.90;;
9007;SDS011;62813;51.424;6.762;2022-10-23T17:04:58;7.90;;;3.50;;
9007;SDS011;62813;51.424;6.762;2022-10-23T17:07:25;10.07;;;3.50;;